Nearby METAR Reports

 

KORH - Worcester, Massachusetts, USA
Distance from station: NW 4mi, 7km
Updated: Wed, 17-Jan-2018 3:54pm EST
Light snow, Mist, Overcast
Light snow, Mist, Overcast
 Wind from N
Wind: N 3 mph , 6 km/h
Temperature: 30°F , -1°C
Dew Point: 27°F , -3°C
Humidity: 86%
Barometer: 30.09 inHg , 1019 hPa
Summary: Light snow, Mist
Clouds: Overcast
Visibility: 1 mile , 2 km
Cloud details: Mostly cloudy 400 ft
Mostly cloudy 900 ft
Overcast 1500 ft
2018/01/17 20:54 KORH 172054Z 01003KT 1SM R11/P6000FT -SN BR BKN004 BKN009 OVC015 M01/M03 A3009 RMK AO2 SLP202 P0003 60005 T10111028 55010
KBOS - Boston, Massachusetts, USA
Distance from station: ENE 42mi, 68km
Updated: Wed, 17-Jan-2018 3:54pm EST
Light snow, Mist, Overcast
Light snow, Mist, Overcast
 Wind from N
Wind: N 7 mph , 11 km/h
Temperature: 34°F , 1°C
Wind Chill: 28°F , -2°C
Dew Point: 30°F , -1°C
Humidity: 87%
Barometer: 30.13 inHg , 1020.3 hPa
Summary: Light snow, Mist
Clouds: Overcast
Visibility: 5 miles , 8 km
Cloud details: Mostly cloudy 700 ft
Overcast 1300 ft
2018/01/17 20:54 KBOS 172054Z 01006KT 5SM -SN BR BKN007 OVC013 01/M01 A3013 RMK AO2 SLP201 PCPN VRY LGT P0000 60002 T00061006 55010
 
KCQX - Chatham, Massachusetts, USA
Distance from station: SE 102mi, 164km
Updated: Wed, 17-Jan-2018 3:52pm EST
Mist, Overcast
Mist, Overcast
 Wind from calm
Wind: Calm
Temperature: 39°F , 4°C
Dew Point: 39°F , 4°C
Humidity: 100%
Barometer: 30.09 inHg , 1019 hPa
Summary: Mist
Clouds: Overcast
Visibility: 4 miles , 6 km
Cloud details: Overcast 400 ft
2018/01/17 20:52 KCQX 172052Z AUTO 00000KT 4SM BR OVC004 04/04 A3009 RMK AO2 SLP191 60001 T00390039 53001 TSNO
KMVY - Marthas Vineyard, Massachusetts, USA
Distance from station: SE 84mi, 135km
Updated: Wed, 17-Jan-2018 3:53pm EST
Haze, Overcast
Haze, Overcast
 Wind from N
Wind: N 3 mph , 6 km/h
Barometer: 30.09 inHg , 1019 hPa
Summary: Haze
Clouds: Overcast
Visibility: 4 miles , 6 km
Cloud details: Overcast 300 ft
2018/01/17 20:53 KMVY 172053Z 36003KT 4SM HZ OVC003 A3009 RMK AO2 SLPNO 56006 $
 
KPVC - Provincetown, Massachusetts, USA
Distance from station: NNW 85mi, 136km
Updated: Wed, 17-Jan-2018 3:56pm EST
Overcast
Overcast
 Wind from NNE
Wind: NNE 7 mph , 11 km/h
Temperature: 37°F , 3°C
Wind Chill: 32°F , 0°C
Dew Point: 36°F , 2°C
Humidity: 93%
Barometer: 30.10 inHg , 1019.3 hPa
Clouds: Overcast
Visibility: 10 miles , 16 km
Cloud details: Overcast 800 ft
2018/01/17 20:56 KPVC 172056Z AUTO 02006KT 10SM OVC008 03/02 A3010 RMK AO2 RAE43 SLP191 P0000 60000 T00280022
KAQW - Savoy, Massachusetts, USA
Distance from station: NNW 66mi, 106km
Updated: Wed, 17-Jan-2018 4:25pm EST
Light snow, Mist, Overcast
Light snow, Mist, Overcast
 Wind from WNW
Wind: WNW 6 mph , 9 km/h
Temperature: 23°F , -5°C
Wind Chill: 16°F , -9°C
Dew Point: 19°F , -7°C
Humidity: 86%
Barometer: 30.17 inHg , 1021.7 hPa
Summary: Light snow, Mist
Clouds: Overcast
Visibility: 3 miles , 5 km
Cloud details: Overcast 1400 ft
2018/01/17 21:25 KAQW 172125Z AUTO 29005KT 3SM -SN BR OVC014 M05/M07 A3017 RMK AO2 P0000 T10501072
 
KIZG - Fryeburg, Maine, USA
Distance from station: NNE 133mi, 214km
Updated: Wed, 17-Jan-2018 4:34pm EST
Light snow, Mist, Overcast
Light snow, Mist, Overcast
 Wind from calm
Wind: Calm
Temperature: 27°F , -3°C
Dew Point: 27°F , -3°C
Humidity: 100%
Barometer: 30.12 inHg , 1020 hPa
Summary: Light snow, Mist
Clouds: Overcast
Visibility: 4 miles , 6 km
Cloud details: Overcast 4500 ft
2018/01/17 21:34 KIZG 172134Z AUTO 00000KT 4SM -SN BR OVC045 M03/M03 A3012 RMK AO2 P0001 T10281033
KMWN - Mt Washington, New Hampshire, USA
Distance from station: NNE 146mi, 234km
Updated: Wed, 17-Jan-2018 3:48pm EST
Light snow, Freezing, Fog, Overcast
Light snow, Freezing, Fog, Overcast
 Wind from SW
Wind: SW 20 mph , 31 km/h
Temperature: 12°F , -11°C
Wind Chill: -6°F , -21°C
Dew Point: 12°F , -11°C
Humidity: 100%
Summary: Light snow, Freezing, Fog
Clouds: Overcast
Visibility: 1/8 mile , 2 km
Cloud details: Overcast 400 ft
2018/01/17 20:48 KMWN 172048Z 23017KT 1/8SM -SN FZFG VV004 M11/M11 RMK VRY LGT ICG
 
KBML - Berlin, New Hampshire, USA
Distance from station: NNE 160mi, 257km
Updated: Wed, 17-Jan-2018 4:14pm EST
Light snow, Mist, Overcast
Light snow, Mist, Overcast
 Wind from calm
Wind: Calm
Temperature: 27°F , -3°C
Dew Point: 21°F , -6°C
Humidity: 80%
Barometer: 30.08 inHg , 1018.6 hPa
Summary: Light snow, Mist
Clouds: Overcast
Visibility: 2 1/2 miles , 2 km
Cloud details: Mostly cloudy 4500 ft
Overcast 5500 ft
2018/01/17 21:14 KBML 172114Z AUTO 00000KT 2 1/2SM -SN BR BKN045 OVC055 M03/M06 A3008 RMK AO2 P0000 T10331056